Tiempo atmosférico en la estación meteorológica de Alajar, Huelva (572 m.)



Fecha
DESCASC
Temp. máxima en grados centígrados (hora)
DESCASC
Temp. mínima en grados centígrados (hora)
DESCASC
Temp. media en grados centígrados
DESCASC
Racha de viento máxima en m/sg (hora)
DESCASC
Velocidad máxima media en intervalos de 10 minutos(hora)
DESCASC
Precipitaciones diarias en mm
DESCASC
Precipitaciones de 00:00 a 06:00 en mm
DESCASC
Precipitaciones de 06:00 a 12:00 en mm
DESCASC
Precipitaciones de 12:00 a 18:00 en mm
DESCASC
Precipitaciones de 18:00 a 24:00 en mm
DESCASC
16-01-2020 15 (15:20) 8.9 (08:50) 11.9 9.72 (22:50) 5.83 (16:00) 0 0 0 0 0
15-01-2020 11.2 (21:20) 6.8 (03:20) 9 7.5 (21:50) 3.61 (21:50) 16.2 0 0 12.4 3.8
14-01-2020 11.5 (13:00) 3.2 (06:30) 7.4 6.11 (14:40) 3.33 (16:00) 0 0 0 0 0
13-01-2020 13.7 (14:50) 3.3 (08:40) 8.5 6.67 (14:50) 3.61 (14:30) 0 0 0 0 0
12-01-2020 16 (15:40) 3.7 (00:00) 9.9 10.56 (20:40) 6.11 (20:50) 0 0 0 0 0
11-01-2020 14.7 (15:00) 4.8 (00:00) 9.8 11.11 (02:20) 6.11 (00:40) 0 0 0 0 0
10-01-2020 11.9 (15:30) 4.9 (00:00) 8.4 10.83 (08:40) 5 (02:20) 0 0 0 0 0
09-01-2020 16 (15:50) 5 (00:00) 10.5 8.61 (20:30) 5.28 (20:30) 0 0 0 0 0
08-01-2020 19.2 (15:30) 8.4 (00:00) 13.8 7.22 (23:00) 4.44 (22:30) 0 0 0 0 0
07-01-2020 19.4 (15:30) 6.2 (00:00) 12.8 6.11 (00:10) 3.89 (20:50) 0 0 0 0 0
06-01-2020 16.6 (15:20) 4.8 (00:00) 10.7 6.67 (23:59) 4.17 (23:59) 0 0 0 0 0
05-01-2020 14.9 (15:00) 6.2 (00:00) 10.5 6.11 (14:40) 3.61 (15:10) 0 0 0 0 0
04-01-2020 14.2 (15:40) 6.1 (00:00) 10.1 8.33 (04:00) 4.17 (08:30) 0 0 0 0 0
03-01-2020 12 (15:20) 7 (00:00) 9.5 8.06 (17:00) 3.33 (14:40) 0 0 0 0 0
02-01-2020 14.5 (14:30) 5.4 (00:00) 10 5.28 (14:40) 3.33 (14:40) 0 0 0 0 0
01-01-2020 17.5 (15:30) 6.5 (00:00) 12 3.89 (14:00) 2.22 (07:10) 0 0 0 0 0
31-12-2019 17.9 (15:50) 5.9 (00:00) 11.9 3.89 (14:50) 2.22 (12:10) 0 0 0 0 0
30-12-2019 17.3 (16:10) 6.7 (00:00) 12 4.17 (12:10) 2.5 (14:20) 0 0 0 0 0
29-12-2019 19.9 (13:40) 8.6 (00:00) 14.3 7.5 (02:00) 3.61 (02:10) 0 0 0 0 0
28-12-2019 22 (15:00) 12.5 (00:00) 17.3 7.5 (12:30) 3.89 (12:30) 0 0 0 0 0
27-12-2019 20.9 (14:30) 12.3 (00:00) 16.6 6.39 (14:30) 3.61 (17:00) 0 0 0 0 0
26-12-2019 21.1 (14:40) 13.2 (00:00) 17.2 11.11 (01:30) 7.22 (01:40) 0 0 0 0 0
25-12-2019 21.1 (14:40) 11.4 (00:00) 16.3 9.44 (22:40) 6.67 (22:30) 0 0 0 0 0
24-12-2019 21.3 (13:00) 12.3 (00:00) 16.8 8.89 (14:00) 4.72 (14:00) 0 0 0 0 0
23-12-2019 19.9 (15:40) 8.3 (00:00) 14.1 6.39 (07:40) 4.44 (07:30) 0 0 0 0 0
22-12-2019 15.2 (15:50) 9.7 (00:00) 12.4 11.11 (05:10) 6.39 (03:50) 0 0 0 0 0
21-12-2019 15.6 (14:40) 11.2 (00:00) 13.4 16.67 (15:30) 8.33 (05:40) 25 10.6 7 7.4 0
20-12-2019 14.8 (19:30) 13.9 (00:00) 14.3 20.83 (01:40) 9.72 (01:00) 87 40.6 23.8 9 13.6

Gráficas

Temp. máximas Temp. mínimas Temp. medias Precipitaciones Rachas de viento máximas Velocidades máximas media en intervalos de 10 minutos

Datos horarios

Fecha y hora oficial Temperatura (ºC) Velocidad del viento (km/h) Dirección del viento Racha (km/h) Dirección de racha Precipitación (mm) Presión (hPa) Tendencia (hPa) Humedad (%)
2020-01-18 23:00:00 10.4 21 Noroeste 46 Noroeste 0 957.7 -0.8 94
2020-01-18 22:00:00 10.6 20 Noroeste 43 Oeste 0.2 957.5 -1 97
2020-01-18 21:00:00 10.8 11 Oeste 24 Oeste 0 957.8 -0.9 100
2020-01-18 20:00:00 10.9 5 Oeste 18 Oeste 0 958.5 -0.5 100
2020-01-18 19:00:00 12 7 Oeste 19 Oeste 0 958.5 -0.6 100
2020-01-18 18:00:00 12.8 7 Noroeste 19 Oeste 0 958.7 -0.7 100
2020-01-18 17:00:00 13.6 8 Oeste 16 Oeste 0.8 959 -1.5 100
2020-01-18 16:00:00 12.8 8 Oeste 19 Oeste 0.4 959.1 -2.7 100
2020-01-18 15:00:00 11.9 3 Sur 10 Sudoeste 0.8 959.4 -3.4 100
2020-01-18 14:00:00 11.4 3 Noroeste 10 Sudoeste 1.2 960.5 -2.2 100
2020-01-18 13:00:00 11 4 Sudoeste 9 Sudoeste 2.6 961.8 -0.5 100
2020-01-18 12:00:00 10.7 4 Sudoeste 9 Sudoeste 5.4 962.8 0.1 100
2020-01-18 11:00:00 10.3 4 Oeste 12 Sudoeste 4 962.7 0.6 100
2020-01-18 10:00:00 9.9 4 Oeste 9 Oeste 7.2 962.3 0 100
2020-01-18 09:00:00 9.7 2 Este 14 Oeste 4.8 962.7 0.5 100
2020-01-18 08:00:00 9.7 4 Sudoeste 11 Sudoeste 0.2 962.1 0 100
2020-01-18 07:00:00 10 5 Sudoeste 10 Sudoeste 0 962.3 -0.5 100
2020-01-18 06:00:00 10 6 Sudoeste 12 Sudoeste 0 962.2 -1.1 96
2020-01-18 05:00:00 9.6 6 Sudoeste 13 Sur 0 962.1 -1.4 91
2020-01-18 04:00:00 9.5 4 Sur 8 Sur 0 962.8 -1.5 86
2020-01-18 03:00:00 9.5 3 Nordeste 8 Nordeste 0 963.3 -0.9 87
2020-01-18 02:00:00 9.2 7 Nordeste 9 Nordeste 0 963.5 -1.1 100
2020-01-18 01:00:00 9.5 6 Nordeste 9 Nordeste 0 964.3 -0.1 98
2020-01-18 00:00:00 9.1 7 Nordeste 10 Nordeste 0 964.2 -0.5 100
2020-01-17 23:00:00 8.5 4 Nordeste 10 Nordeste 0 964.6 0.1 100
2020-01-17 22:00:00 9.1 4 Nordeste 10 Nordeste 0 964.4 0.4 100
2020-01-17 21:00:00 9.2 2 Noroeste 12 Nordeste 0 964.7 1 96
2020-01-17 20:00:00 9.8 5 Nordeste 8 Norte 0 964.5 0.9 88
2020-01-17 19:00:00 11.1 2 Nordeste 11 Norte 0 964 0.8 77
2020-01-17 18:00:00 13.7 4 Norte 13 Nordeste 0 963.7 0.1 59
2020-01-17 17:00:00 14.4 7 Norte 17 Norte 0 963.6 -0.4 61
2020-01-17 16:00:00 14.4 9 Norte 18 Norte 0 963.2 -1.6 60
2020-01-17 15:00:00 14.6 10 Norte 21 Norte 0 963.6 -1.8 54
2020-01-17 14:00:00 14.5 9 Norte 18 Norte 0 964 -0.9 56
2020-01-17 13:00:00 14.3 6 Nordeste 20 Nordeste 0 964.8 0.3 68
2020-01-17 12:00:00 12.7 6 Nordeste 20 Nordeste 0 965.4 1.4 67
2020-01-17 11:00:00 10.7 4 Sudoeste 6 Sur 0.2 964.9 1.5 100
2020-01-17 10:00:00 8.1 0 Calma 6 Nordeste 0 964.5 1.8 100
2020-01-17 09:00:00 6.8 0 Calma 9 Nordeste 0 964 2.1 100
2020-01-17 08:00:00 7.4 5 Nordeste 11 Nordeste 0 963.4 1.7 100
2020-01-17 07:00:00 8.5 3 Sur 10 Norte 0 962.7 1.1 100
2020-01-17 06:00:00 9.6 5 Norte 10 Noroeste 0 961.9 0.4 100
2020-01-17 05:00:00 10.4 3 Sudoeste 10 Oeste 0 961.7 0.2 100
2020-01-17 04:00:00 10.8 4 Oeste 20 Oeste 0.8 961.6 0.1 100
2020-01-17 03:00:00 10.7 8 Oeste 26 Sudoeste 1.6 961.5 -0.2 100
2020-01-17 02:00:00 10.8 9 Oeste 27 Sudoeste 1 961.5 0.3 100
2020-01-17 01:00:00 10.8 12 Sudoeste 27 Sudoeste 0 961.5 0.5 100
2020-01-17 00:00:00 10.9 11 Sudoeste 29 Oeste 0 961.7 1 100
2020-01-16 23:00:00 10.8 15 Sudoeste 35 Sudoeste 0 961.2 0.7 100
2020-01-16 22:00:00 10.6 13 Sudoeste 31 Sudoeste 0 961 1 100
2020-01-16 21:00:00 10.5 11 Sudoeste 22 Sudoeste 0 960.7 1.2 100
2020-01-16 20:00:00 10.3 12 Sudoeste 26 Sudoeste 0 960.5 1.5 88
2020-01-16 19:00:00 10.7 12 Sudoeste 24 Sudoeste 0 960 1 67
2020-01-16 18:00:00 12 16 Sudoeste 28 Sudoeste 0 959.5 0.3 51
2020-01-16 17:00:00 13.7 15 Sudoeste 30 Sudoeste 0 959 -0.9 46
2020-01-16 16:00:00 14.5 21 Sudoeste 32 Sudoeste 0 959 -1.6 49
2020-01-16 15:00:00 14.7 18 Sudoeste 31 Sudoeste 0 959.2 -1.8 54
2020-01-16 14:00:00 14.6 12 Sudoeste 28 Sudoeste 0 959.9 -0.8 67
2020-01-16 13:00:00 13.7 13 Sudoeste 22 Sudoeste 0 960.6 0.2 69
2020-01-16 12:00:00 12.2 9 Sur 16 Sur 0 961 1.1 82
2020-01-16 11:00:00 9.8 5 Sur 18 Sudeste 0 960.7 1.3 100
2020-01-16 10:00:00 9.2 6 Sudeste 13 Sur 0 960.4 1.1 100
2020-01-16 09:00:00 8.9 7 Sudeste 18 Sur 0 959.9 0.8 100
2020-01-16 08:00:00 9.1 8 Sur 13 Sur 0 959.4 0.2 100
2020-01-16 07:00:00 9.3 6 Sur 13 Sudeste 0 959.3 0 100
2020-01-16 06:00:00 9.6 8 Sur 14 Sur 0 959.1 -0.4 100
2020-01-16 05:00:00 9.8 7 Sur 19 Sur 0 959.2 -0.3 100
2020-01-16 04:00:00 10.2 9 Sur 20 Sur 0 959.3 -0.4 100
2020-01-16 03:00:00 10.3 7 Sur 19 Sur 0 959.5 -0.4 100
2020-01-16 02:00:00 10.5 5 Sur 17 Sur 0 959.5 -0.3 100
2020-01-16 01:00:00 10.8 6 Sur 21 Sur 0 959.7 0.3 100
2020-01-16 00:00:00 11 12 Sudoeste 26 Sur 0 959.9 0.6 100
2020-01-15 23:00:00 11.1 12 Sur 22 Sudoeste 0.2 959.8 0.7 100
2020-01-15 22:00:00 11.2 8 Sur 27 Sudoeste 0.6 959.4 0.6 100
2020-01-15 21:00:00 11 6 Sudoeste 14 Sur 1 959.3 0.8 100
2020-01-15 20:00:00 10.5 4 Sudeste 11 Sudeste 1.2 959.1 0.9 100
2020-01-15 19:00:00 10.3 4 Sudeste 12 Oeste 0.8 958.8 1.1 100
2020-01-15 18:00:00 10.4 4 Sudeste 22 Sudeste 3.8 958.5 0.9 100
2020-01-15 17:00:00 10.4 8 Sur 16 Sur 4.4 958.2 0.3 100
2020-01-15 16:00:00 10.6 6 Sur 14 Sudoeste 3 957.7 -0.5 100
2020-01-15 15:00:00 10.3 10 Sudeste 17 Sur 0.4 957.6 -1.1 100
2020-01-15 14:00:00 9.7 3 Noroeste 21 Sur 0.6 957.9 -0.3 100
2020-01-15 13:00:00 9.6 8 Sudeste 18 Sur 0.2 958.2 0.8 100
2020-01-15 12:00:00 9.6 6 Sur 19 Sudoeste 0 958.7 1.6 100
2020-01-15 11:00:00 9.1 6 Sur 24 Sur 0 958.2 1.4 100
2020-01-15 10:00:00 8.7 7 Sur 20 Sudeste 0 957.4 1 100
2020-01-15 09:00:00 8 5 Oeste 20 Sur 0 957.1 1.1 100
2020-01-15 08:00:00 7.7 6 Sudeste 13 Sudeste 0 956.8 0.8 100
2020-01-15 07:00:00 7.6 3 Este 9 Sudeste 0 956.4 0.4 98
2020-01-15 06:00:00 7.5 4 Sudeste 12 Sudeste 0 956 -0.3 98
2020-01-15 05:00:00 7.3 2 Sudeste 8 Sudeste 0 956 -0.4 100
2020-01-15 04:00:00 6.8 6 Este 11 Sudeste 0 956 -0.8 100
2020-01-15 03:00:00 6.9 4 Este 8 Este 0 956.3 -0.2 100
2020-01-15 02:00:00 7.7 5 Este 9 Sudeste 0 956.4 -0.3 100
2020-01-15 01:00:00 7.7 5 Sudeste 9 Sudeste 0 956.8 0.2 100
2020-01-15 00:00:00 8.4 5 Este 15 Sudeste 0 956.5 0 94
2020-01-14 23:00:00 8.5 5 Sur 12 Sur 0 956.7 0.5 93
2020-01-14 22:00:00 8.9 4 Sur 17 Sur 0 956.6 0.5 89
2020-01-14 21:00:00 9 7 Sur 19 Sudeste 0 956.5 0.7 87
2020-01-14 20:00:00 9 4 Sur 14 Sudeste 0 956.2 0.7 85
2020-01-14 19:00:00 8.9 4 Sur 8 Sudeste 0 956.1 0.7 80
2020-01-14 18:00:00 9.1 6 Sudoeste 17 Sur 0 955.8 0.5 74
2020-01-14 17:00:00 9.5 9 Sur 18 Sur 0 955.5 -0.4 73
2020-01-14 16:00:00 9.8 12 Sudoeste 18 Sudoeste 0 955.4 -1.3 69
2020-01-14 15:00:00 10.2 11 Sudoeste 22 Sur 0 955.3 -1.8 70
2020-01-14 14:00:00 10 6 Sudoeste 16 Sudoeste 0 955.9 -1.4 68
2020-01-14 13:00:00 11 9 Sudoeste 15 Sudoeste 0 956.7 0.1 62
2020-01-14 12:00:00 10.2 8 Sur 14 Sur 0 957.1 1.2 65
2020-01-14 11:00:00 8.2 5 Sudoeste 11 Sudoeste 0 957.3 1.7 73
2020-01-14 10:00:00 5.3 5 Noroeste 9 Nordeste 0 956.6 1.3 88
2020-01-14 09:00:00 3.9 8 Nordeste 10 Nordeste 0 955.9 0.4 91
2020-01-14 08:00:00 4.8 5 Nordeste 11 Nordeste 0 955.6 0 86
2020-01-14 07:00:00 3.6 2 Este 15 Nordeste 0 955.3 -0.4 93
2020-01-14 06:00:00 3.5 3 Noroeste 5 Este 0 955.5 -0.5 95
2020-01-14 05:00:00 4.2 4 Noroeste 13 Norte 0 955.6 -0.7 92
2020-01-14 04:00:00 3.9 0 Calma 6 Oeste 0 955.7 -1.2 99
2020-01-14 03:00:00 3.8 2 Sur 5 Noroeste 0 956 -1.3 99
2020-01-14 02:00:00 3.9 2 Sur 6 Noroeste 0 956.3 -1 96
2020-01-14 01:00:00 4.3 2 Norte 6 Norte 0 956.9 -0.2 94
2020-01-14 00:00:00 4.4 0 Calma 6 Oeste 0 957.3 -0.1 95
2020-01-13 23:00:00 4.5 3 Norte 6 Noroeste 0 957.3 -0.1 94
2020-01-13 22:00:00 5 3 Nordeste 8 Nordeste 0 957.1 -0.2 86
2020-01-13 21:00:00 5 2 Nordeste 10 Nordeste 0 957.4 0.2 79
2020-01-13 20:00:00 6.3 7 Nordeste 12 Nordeste 0 957.4 0.1 74
2020-01-13 19:00:00 7.1 5 Norte 8 Sudoeste 0 957.3 0.1 72
2020-01-13 18:00:00 10.3 6 Sudoeste 15 Sudoeste 0 957.2 -0.3 57
2020-01-13 17:00:00 12.6 10 Sudoeste 19 Sudoeste 0 957.3 -1 47
2020-01-13 16:00:00 13.3 8 Sudoeste 19 Oeste 0 957.2 -2 48
2020-01-13 15:00:00 13.4 11 Sudoeste 24 Sudoeste 0 957.5 -2.4 49
2020-01-13 14:00:00 12.9 9 Sudoeste 21 Sudoeste 0 958.3 -1.6 49
2020-01-13 13:00:00 11.5 7 Sur 17 Sur 0 959.2 -0.1 59
2020-01-13 12:00:00 11 9 Sudoeste 16 Sudoeste 0 959.9 1 59
2020-01-13 11:00:00 8.8 5 Sur 10 Sur 0 959.9 1 70
2020-01-13 10:00:00 5.6 4 Este 10 Este 0 959.3 0.7 86
2020-01-13 09:00:00 4.3 8 Nordeste 10 Nordeste 0 958.9 0.1 90
2020-01-13 08:00:00 3.8 5 Nordeste 10 Nordeste 0 958.9 -0.2 88
2020-01-13 07:00:00 4 5 Nordeste 10 Nordeste 0 958.6 -0.9 80
2020-01-13 06:00:00 4.4 8 Nordeste 11 Nordeste 0 958.8 -1 78
2020-01-13 05:00:00 5 9 Nordeste 11 Nordeste 0 959.1 -1.2 78
2020-01-13 04:00:00 5.5 8 Nordeste 12 Este 0 959.5 -1.6 75
2020-01-13 03:00:00 5.6 8 Este 12 Nordeste 0 959.8 -1.6 73
2020-01-13 02:00:00 5.3 6 Nordeste 12 Nordeste 0 960.3 -1.1 75
2020-01-13 01:00:00 6 7 Nordeste 11 Este 0 961.1 -0.3 67
2020-01-13 00:00:00 5.3 4 Nordeste 10 Nordeste 0 961.4 0.2 71
2020-01-12 23:00:00 7.1 6 Norte 21 Norte 0 961.4 0.2 62
2020-01-12 22:00:00 8.8 17 Norte 30 Norte 0 961.4 0.5 59
2020-01-12 21:00:00 9 20 Norte 38 Nordeste 0 961.2 0.3 58
2020-01-12 20:00:00 9.3 18 Norte 32 Norte 0 961.2 0.4 56
2020-01-12 19:00:00 9.9 17 Norte 26 Norte 0 960.9 0.1 51
2020-01-12 18:00:00 11.3 16 Norte 28 Nordeste 0 960.9 -0.1 46
2020-01-12 17:00:00 13.1 12 Norte 22 Nordeste 0 960.8 -1.1 45
2020-01-12 16:00:00 15.8 4 Sudoeste 19 Sudoeste 0 960.8 -2.1 39
2020-01-12 15:00:00 15.5 9 Sudoeste 18 Sur 0 961 -2.8 41
2020-01-12 14:00:00 15 8 Sudoeste 15 Sur 0 961.9 -2 42
2020-01-12 13:00:00 13.9 6 Sudoeste 16 Sudoeste 0 962.9 -0.3 43
2020-01-12 12:00:00 12.6 6 Sudoeste 12 Sudoeste 0 963.8 0.9 49
2020-01-12 11:00:00 9.5 4 Sudoeste 7 Sudoeste 0 963.9 1.1 60
2020-01-12 10:00:00 6.2 0 Calma 6 Noroeste 0 963.2 0.7 77
2020-01-12 09:00:00 4.1 3 Noroeste 10 Nordeste 0 962.9 0.6 78
2020-01-12 08:00:00 3.8 3 Norte 9 Nordeste 0 962.8 0.3 81
2020-01-12 07:00:00 4.2 2 Sudeste 7 Nordeste 0 962.5 -0.3 79
2020-01-12 06:00:00 4.3 0 Calma 8 Nordeste 0 962.3 -0.3 79
2020-01-12 05:00:00 4.4 2 Sur 8 Nordeste 0 962.5 -0.1 78
2020-01-12 04:00:00 4.6 2 Noroeste 6 Nordeste 0 962.8 -0.1 76
2020-01-12 03:00:00 4.8 2 Sudoeste 10 Nordeste 0 962.6 -0.4 74
2020-01-12 02:00:00 5.2 7 Nordeste 11 Nordeste 0 962.6 -0.3 72
2020-01-12 01:00:00 5 3 Norte 11 Nordeste 0 962.9 0.1 72
2020-01-12 00:00:00 5.6 5 Nordeste 14 Nordeste 0 963 0.3 70
2020-01-11 23:00:00 5.2 3 Norte 10 Nordeste 0 962.9 0.6 73
2020-01-11 22:00:00 5.6 3 Nordeste 13 Nordeste 0 962.8 0.8 71
2020-01-11 21:00:00 5.9 0 Calma 12 Nordeste 0 962.7 1.4 68
2020-01-11 20:00:00 6.8 5 Nordeste 12 Nordeste 0 962.3 1.4 65
2020-01-11 19:00:00 8.1 4 Nordeste 10 Sur 0 962 1.2 61
2020-01-11 18:00:00 12.2 6 Sur 14 Sur 0 961.3 0.2 45
2020-01-11 17:00:00 14 7 Sur 18 Sur 0 960.9 -0.7 39
2020-01-11 16:00:00 14.5 6 Sudeste 18 Sur 0 960.8 -1.6 39
2020-01-11 15:00:00 14.7 8 Sudeste 24 Sudeste 0 961.1 -1.6 37
2020-01-11 14:00:00 13.5 9 Sudeste 21 Este 0 961.6 -0.7 37
2020-01-11 13:00:00 12.7 8 Sudeste 23 Este 0 962.4 0.6 40
2020-01-11 12:00:00 11.9 10 Sudeste 24 Sudeste 0 962.7 1.4 42
2020-01-11 11:00:00 10.2 10 Sudeste 26 Este 0 962.3 1.1 46
2020-01-11 10:00:00 8.6 13 Este 29 Nordeste 0 961.8 0.9 49
2020-01-11 09:00:00 6.7 13 Nordeste 28 Nordeste 0 961.3 0.4 56
2020-01-11 08:00:00 6.2 14 Nordeste 23 Este 0 961.2 0.3 58
2020-01-11 07:00:00 5.6 7 Nordeste 15 Nordeste 0 960.9 -0.2 61
2020-01-11 06:00:00 5.6 9 Nordeste 23 Nordeste 0 960.9 -0.1 62
2020-01-11 05:00:00 7.6 14 Este 31 Nordeste 0 960.9 0 53
2020-01-11 04:00:00 7.8 12 Este 28 Nordeste 0 961.1 0 52
2020-01-11 03:00:00 8.4 17 Este 40 Nordeste 0 961 -0.3 50
2020-01-11 02:00:00 7.9 12 Este 31 Nordeste 0 960.9 -0.2 52
2020-01-11 01:00:00 8.3 14 Nordeste 39 Nordeste 0 961.1 0.3 52
2020-01-11 00:00:00 7.1 11 Nordeste 28 Nordeste 0 961.3 0.7 65
2020-01-10 23:00:00 7.2 12 Nordeste 33 Nordeste 0 961.1 0.9 74
2020-01-10 22:00:00 6.8 15 Nordeste 27 Norte 0 960.8 1.5 77
2020-01-10 21:00:00 7.3 15 Nordeste 26 Nordeste 0 960.6 1.9 76
2020-01-10 20:00:00 7.9 15 Nordeste 26 Norte 0 960.2 1.9 71
2020-01-10 19:00:00 8.9 5 Nordeste 25 Nordeste 0 959.3 0.5 68
2020-01-10 18:00:00 10.6 10 Nordeste 22 Nordeste 0 958.7 0.7 62
2020-01-10 17:00:00 11.7 7 Este 22 Nordeste 0 958.3 -0.2 53
2020-01-10 16:00:00 11.3 13 Nordeste 25 Nordeste 0 958.8 -0.3 53
2020-01-10 15:00:00 11.3 10 Nordeste 29 Este 0 958 -1.5 50
2020-01-10 14:00:00 10.4 10 Este 29 Este 0 958.5 -1.1 58
2020-01-10 13:00:00 9.4 10 Este 34 Norte 0 959.1 -0.2 59
2020-01-10 12:00:00 8.7 8 Nordeste 37 Norte 0 959.5 0.7 61
2020-01-10 11:00:00 7.3 5 Sur 37 Nordeste 0 959.6 0.8 65
2020-01-10 10:00:00 5.6 17 Nordeste 34 Nordeste 0 959.3 0.9 72
2020-01-10 09:00:00 5.1 8 Norte 39 Norte 0 958.8 0.4 80
2020-01-10 08:00:00 5.6 6 Norte 30 Norte 0 958.8 0.2 84
2020-01-10 07:00:00 5.8 13 Norte 30 Norte 0 958.4 -0.4 89
2020-01-10 06:00:00 6.3 10 Norte 27 Norte 0 958.4 -0.6 93
2020-01-10 05:00:00 6.9 9 Norte 24 Nordeste 0 958.6 -0.5 93
2020-01-10 04:00:00 7.8 6 Noroeste 32 Noroeste 0 958.8 -0.8 90
2020-01-10 03:00:00 8.5 7 Norte 32 Norte 0 959 -1.1 90
2020-01-10 02:00:00 9.2 10 Noroeste 30 Noroeste 0 959.1 -1 99
2020-01-10 01:00:00 9.9 8 Norte 20 Nordeste 0 959.6 -0.5 100
2020-01-10 00:00:00 10.2 5 Oeste 20 Norte 0 960.1 0 98
2020-01-09 23:00:00 10.3 5 Nordeste 26 Nordeste 0 960.1 0.3 90
2020-01-09 22:00:00 10.4 9 Norte 27 Noroeste 0 960.1 0.5 94
2020-01-09 21:00:00 9.4 10 Norte 31 Norte 0 960.1 0.8 92
2020-01-09 20:00:00 9.2 11 Norte 25 Norte 0 959.8 1 78
2020-01-09 19:00:00 10 13 Nordeste 19 Nordeste 0 959.6 0.9 75
2020-01-09 18:00:00 12.1 12 Norte 19 Norte 0 959.3 0.5 63
2020-01-09 17:00:00 15.9 3 Sur 19 Noroeste 0 958.8 -0.7 43
2020-01-09 16:00:00 15.8 4 Oeste 20 Norte 0 958.7 -1.8 41
2020-01-09 15:00:00 14.4 7 Noroeste 21 Noroeste 0 958.8 -2.4 47
2020-01-09 14:00:00 13.1 6 Sudoeste 11 Sur 0 959.5 -1.3 68
2020-01-09 13:00:00 9.4 3 Oeste 8 Sudeste 0 960.5 0.2 92
2020-01-09 12:00:00 7.7 4 Sur 9 Sur 0 961.2 1.6 100
2020-01-09 11:00:00 7 4 Sur 9 Sur 0 960.8 1.3 100
2020-01-09 10:00:00 5.9 2 Sudoeste 6 Este 0 960.3 0.9 100
2020-01-09 09:00:00 5.3 5 Nordeste 11 Nordeste 0 959.6 0.3 100
2020-01-09 08:00:00 5.4 5 Este 11 Nordeste 0 959.5 0.1 88
2020-01-09 07:00:00 6 5 Nordeste 8 Nordeste 0 959.4 -0.4 82
2020-01-09 06:00:00 6.5 3 Noroeste 12 Nordeste 0 959.3 -0.6 73
2020-01-09 05:00:00 7.6 6 Nordeste 9 Este 0 959.4 -0.5 70
2020-01-09 04:00:00 7.3 4 Nordeste 10 Nordeste 0 959.8 0.1 52
2020-01-09 03:00:00 7.7 4 Noroeste 9 Este 0 959.9 -0.3 52
2020-01-09 02:00:00 7.7 5 Este 9 Nordeste 0 959.9 -0.3 43
2020-01-09 01:00:00 8.4 4 Norte 12 Nordeste 0 959.7 -0.3 42
2020-01-09 00:00:00 9 6 Oeste 10 Norte 0 960.2 0.2 54
2020-01-08 23:00:00 11.5 9 Norte 26 Norte 0 960.2 0.3 44
2020-01-08 22:00:00 12.4 6 Noroeste 19 Nordeste 0 960 -0.1 24
2020-01-08 21:00:00 12.9 13 Nordeste 21 Nordeste 0 960 0 26
2020-01-08 20:00:00 11.9 9 Norte 14 Norte 0 959.9 0.1 54
2020-01-08 19:00:00 11.5 3 Norte 11 Nordeste 0 960.1 0.4 70
2020-01-08 18:00:00 15.6 3 Noroeste 10 Sudoeste 0 960 0.1 56
2020-01-08 17:00:00 18.1 8 Sudoeste 13 Sudoeste 0 959.8 -0.6 46
2020-01-08 16:00:00 19.1 7 Sudoeste 13 Sudoeste 0 959.7 -1.4 45
2020-01-08 15:00:00 19.1 6 Sudoeste 14 Sudoeste 0 959.9 -2 42
2020-01-08 14:00:00 18.8 8 Sudoeste 13 Sudoeste 0 960.4 -1.6 42
2020-01-08 13:00:00 17.8 7 Sudoeste 11 Sudoeste 0 961.1 -0.2 40
2020-01-08 12:00:00 16.3 5 Sur 8 Sudoeste 0 961.9 0.8 39
2020-01-08 11:00:00 13.2 3 Sudoeste 6 Sur 0 962 1 41
2020-01-08 10:00:00 10.6 0 Calma 9 Nordeste 0 961.3 0.6 42
2020-01-08 09:00:00 9.3 2 Noroeste 8 Nordeste 0 961.1 0.2 33
2020-01-08 08:00:00 8.5 3 Oeste 10 Nordeste 0 961 0 37
2020-01-08 07:00:00 8.7 6 Nordeste 11 Nordeste 0 960.7 -0.6 40
2020-01-08 06:00:00 8.7 4 Norte 8 Nordeste 0 960.9 -0.5 41
2020-01-08 05:00:00 8.8 4 Norte 8 Nordeste 0 961 -0.4 42
2020-01-08 04:00:00 9 3 Norte 7 Nordeste 0 961.3 -0.4 40
2020-01-08 03:00:00 9 2 Sudoeste 6 Nordeste 0 961.4 -0.8 42
2020-01-08 02:00:00 9.5 3 Nordeste 10 Nordeste 0 961.4 -1 41
2020-01-08 01:00:00 9.7 3 Oeste 11 Nordeste 0 961.7 -0.7 36
2020-01-08 00:00:00 10.4 3 Noroeste 9 Nordeste 0 962.2 -0.1 32
2020-01-07 23:00:00 10.8 3 Norte 9 Nordeste 0 962.4 0.1 29
2020-01-07 22:00:00 11.3 5 Nordeste 19 Norte 0 962.4 0.2 37
2020-01-07 21:00:00 12.8 13 Norte 19 Norte 0 962.3 0.3 43
2020-01-07 20:00:00 13 12 Norte 18 Nordeste 0 962.3 0.3 39
2020-01-07 19:00:00 12.2 7 Norte 14 Nordeste 0 962.2 0.3 46
2020-01-07 18:00:00 15.1 6 Nordeste 15 Nordeste 0 962 0.2 36
2020-01-07 17:00:00 17.3 8 Nordeste 15 Este 0 962 -0.5 31
2020-01-07 16:00:00 18.9 6 Sudoeste 14 Sudoeste 0 961.9 -1.3 41
2020-01-07 15:00:00 18.1 7 Norte 18 Sudoeste 0 961.8 -1.7 36
2020-01-07 14:00:00 18.2 6 Sur 13 Sur 0 962.5 -0.8 39
2020-01-07 13:00:00 18 7 Sudoeste 12 Sudoeste 0 963.2 0 45
2020-01-07 12:00:00 16 5 Sur 9 Sur 0 963.5 0.7 44
2020-01-07 11:00:00 12.6 3 Sur 6 Sur 0 963.3 0.7 60
2020-01-07 10:00:00 8.7 2 Nordeste 9 Nordeste 0 963.2 0.8 66
2020-01-07 09:00:00 6.7 2 Sur 9 Nordeste 0 962.8 0.5 54
2020-01-07 08:00:00 6.4 0 Calma 8 Nordeste 0 962.6 0.3 54
2020-01-07 07:00:00 7 3 Oeste 9 Nordeste 0 962.4 0.2 50
2020-01-07 06:00:00 7.1 3 Nordeste 11 Nordeste 0 962.3 0.4 51
2020-01-07 05:00:00 7.7 3 Nordeste 12 Nordeste 0 962.3 0.2 45
2020-01-07 04:00:00 7.1 3 Nordeste 6 Nordeste 0 962.2 0.2 51
2020-01-07 03:00:00 6.9 2 Sudoeste 7 Este 0 961.9 -0.2 55
2020-01-07 02:00:00 7.9 2 Nordeste 9 Nordeste 0 962.1 -0.1 62
2020-01-07 01:00:00 10 5 Nordeste 22 Norte 0 962 0 66
2020-01-07 00:00:00 10.4 15 Norte 24 Nordeste 0 962.1 0.4 64
2020-01-06 23:00:00 9.9 7 Este 21 Nordeste 0 962.2 1 69
2020-01-06 22:00:00 9.2 4 Sudoeste 12 Sudoeste 0 962 1 84
2020-01-06 21:00:00 9.5 5 Este 13 Este 0 961.7 1.2 84
2020-01-06 20:00:00 10.8 3 Sudeste 18 Nordeste 0 961.2 1.1 69
2020-01-06 19:00:00 11.9 13 Norte 18 Norte 0 961 1.2 66
2020-01-06 18:00:00 14.1 3 Oeste 11 Sudoeste 0 960.5 0.7 62
2020-01-06 17:00:00 16 7 Sudoeste 14 Sudoeste 0 960.1 -0.2 55
2020-01-06 16:00:00 16.5 6 Sudoeste 14 Sudoeste 0 959.8 -1.6 52
2020-01-06 15:00:00 16.5 5 Sudoeste 15 Sudoeste 0 959.8 -2.2 55
2020-01-06 14:00:00 15.5 6 Sur 12 Sudoeste 0 960.3 -1.7 57
2020-01-06 13:00:00 14.6 6 Sudoeste 11 Sur 0 961.4 -0.2 60
2020-01-06 12:00:00 13.2 6 Sur 12 Sur 0 962 1.3 66
2020-01-06 11:00:00 10.1 4 Sur 8 Sudeste 0 962 1.8 80
2020-01-06 10:00:00 6.9 0 Calma 8 Nordeste 0 961.6 1.9 97